sensor_id;sensor_type;location;lat;lon;timestamp;pressure;altitude;pressure_sealevel;temperature;humidity
75051;BME280;63628;47.656;11.310;2023-01-26T00:01:11;95109.00;;;-0.07;81.35
75051;BME280;63628;47.656;11.310;2023-01-26T00:03:38;95106.66;;;0.89;84.96
75051;BME280;63628;47.656;11.310;2023-01-26T00:06:06;95092.22;;;1.34;84.63
75051;BME280;63628;47.656;11.310;2023-01-26T00:08:35;95092.66;;;1.46;83.65
75051;BME280;63628;47.656;11.310;2023-01-26T00:11:02;95095.38;;;1.61;83.62
75051;BME280;63628;47.656;11.310;2023-01-26T00:13:31;95092.91;;;1.67;83.78
75051;BME280;63628;47.656;11.310;2023-01-26T00:15:58;95087.84;;;1.66;83.47
75051;BME280;63628;47.656;11.310;2023-01-26T00:18:24;95091.75;;;1.70;83.40
75051;BME280;63628;47.656;11.310;2023-01-26T00:20:54;95091.09;;;1.68;83.46
75051;BME280;63628;47.656;11.310;2023-01-26T00:23:21;95094.00;;;1.73;83.43
75051;BME280;63628;47.656;11.310;2023-01-26T00:25:47;95095.16;;;1.70;83.24
75051;BME280;63628;47.656;11.310;2023-01-26T00:28:14;95092.22;;;1.73;83.13
75051;BME280;63628;47.656;11.310;2023-01-26T00:30:42;95089.78;;;1.72;83.07
75051;BME280;63628;47.656;11.310;2023-01-26T00:33:08;95079.34;;;1.72;82.96
75051;BME280;63628;47.656;11.310;2023-01-26T00:35:35;95082.78;;;1.72;83.20
75051;BME280;63628;47.656;11.310;2023-01-26T00:38:02;95085.22;;;1.74;83.42
75051;BME280;63628;47.656;11.310;2023-01-26T00:40:28;95084.22;;;1.75;83.30
75051;BME280;63628;47.656;11.310;2023-01-26T00:42:55;95084.06;;;1.76;83.04
75051;BME280;63628;47.656;11.310;2023-01-26T00:45:22;95082.44;;;1.75;83.46
75051;BME280;63628;47.656;11.310;2023-01-26T00:47:49;95077.84;;;1.77;83.33
75051;BME280;63628;47.656;11.310;2023-01-26T00:50:16;95089.13;;;1.70;83.25
75051;BME280;63628;47.656;11.310;2023-01-26T00:52:43;95073.63;;;1.76;83.01
75051;BME280;63628;47.656;11.310;2023-01-26T00:55:09;95081.44;;;1.76;83.10
75051;BME280;63628;47.656;11.310;2023-01-26T00:57:36;95074.25;;;1.78;83.32
75051;BME280;63628;47.656;11.310;2023-01-26T01:00:03;95087.31;;;1.78;83.01
75051;BME280;63628;47.656;11.310;2023-01-26T01:02:31;95084.69;;;1.78;83.13
75051;BME280;63628;47.656;11.310;2023-01-26T01:04:59;95082.91;;;1.79;83.17
75051;BME280;63628;47.656;11.310;2023-01-26T01:07:25;95089.09;;;1.78;83.33
75051;BME280;63628;47.656;11.310;2023-01-26T01:09:52;95083.38;;;1.82;83.27
75051;BME280;63628;47.656;11.310;2023-01-26T01:12:18;95081.91;;;1.80;83.11
75051;BME280;63628;47.656;11.310;2023-01-26T01:14:45;95085.50;;;1.79;83.27
75051;BME280;63628;47.656;11.310;2023-01-26T01:17:12;95085.50;;;1.79;83.06
75051;BME280;63628;47.656;11.310;2023-01-26T01:19:39;95092.19;;;1.81;83.26
75051;BME280;63628;47.656;11.310;2023-01-26T01:22:07;95097.88;;;1.85;83.50
75051;BME280;63628;47.656;11.310;2023-01-26T01:24:34;95095.44;;;1.83;83.39
75051;BME280;63628;47.656;11.310;2023-01-26T01:27:00;95093.00;;;1.82;83.09
75051;BME280;63628;47.656;11.310;2023-01-26T01:29:27;95095.59;;;1.82;83.31
75051;BME280;63628;47.656;11.310;2023-01-26T01:31:54;95090.56;;;1.80;83.31
75051;BME280;63628;47.656;11.310;2023-01-26T01:34:20;95087.78;;;1.82;83.19
75051;BME280;63628;47.656;11.310;2023-01-26T01:36:47;95084.19;;;1.83;83.07
75051;BME280;63628;47.656;11.310;2023-01-26T01:39:15;95088.41;;;1.84;83.17
75051;BME280;63628;47.656;11.310;2023-01-26T01:41:40;95083.38;;;1.82;82.95
75051;BME280;63628;47.656;11.310;2023-01-26T01:44:12;95078.31;;;1.81;83.21
75051;BME280;63628;47.656;11.310;2023-01-26T01:46:42;95076.53;;;1.81;83.05
75051;BME280;63628;47.656;11.310;2023-01-26T01:49:16;95062.19;;;1.77;83.30
75051;BME280;63628;47.656;11.310;2023-01-26T01:51:48;95066.25;;;1.80;82.74
75051;BME280;63628;47.656;11.310;2023-01-26T01:54:20;95064.69;;;1.71;83.11
75051;BME280;63628;47.656;11.310;2023-01-26T01:56:51;95062.50;;;1.82;83.12
75051;BME280;63628;47.656;11.310;2023-01-26T01:59:19;95063.66;;;1.80;82.96
75051;BME280;63628;47.656;11.310;2023-01-26T02:01:47;95065.75;;;1.84;83.18
75051;BME280;63628;47.656;11.310;2023-01-26T02:04:18;95061.50;;;1.83;83.11
75051;BME280;63628;47.656;11.310;2023-01-26T02:06:47;95063.78;;;1.86;83.09
75051;BME280;63628;47.656;11.310;2023-01-26T02:09:15;95060.53;;;1.84;83.18
75051;BME280;63628;47.656;11.310;2023-01-26T02:12:04;95065.75;;;1.84;82.93
75051;BME280;63628;47.656;11.310;2023-01-26T02:14:32;95068.69;;;1.81;82.87
75051;BME280;63628;47.656;11.310;2023-01-26T02:16:59;95061.50;;;1.83;82.74
75051;BME280;63628;47.656;11.310;2023-01-26T02:19:31;95067.72;;;1.82;82.96
75051;BME280;63628;47.656;11.310;2023-01-26T02:22:07;95060.69;;;1.83;82.79
75051;BME280;63628;47.656;11.310;2023-01-26T02:24:37;95067.72;;;1.82;82.67
75051;BME280;63628;47.656;11.310;2023-01-26T02:27:06;95059.06;;;1.82;82.96
75051;BME280;63628;47.656;11.310;2023-01-26T02:29:33;95061.41;;;1.38;81.01
75051;BME280;63628;47.656;11.310;2023-01-26T02:31:59;95061.56;;;1.75;83.10
75051;BME280;63628;47.656;11.310;2023-01-26T02:34:26;95055.41;;;1.68;82.21
75051;BME280;63628;47.656;11.310;2023-01-26T02:36:57;95055.47;;;1.83;83.14
75051;BME280;63628;47.656;11.310;2023-01-26T02:39:37;95048.63;;;1.82;82.95
75051;BME280;63628;47.656;11.310;2023-01-26T02:42:07;95049.44;;;1.82;83.00
75051;BME280;63628;47.656;11.310;2023-01-26T02:44:52;95048.00;;;1.80;82.90
75051;BME280;63628;47.656;11.310;2023-01-26T02:47:19;95048.97;;;1.79;82.95
75051;BME280;63628;47.656;11.310;2023-01-26T02:49:45;95042.63;;;1.81;82.88
75051;BME280;63628;47.656;11.310;2023-01-26T02:52:12;95039.38;;;1.79;82.85
75051;BME280;63628;47.656;11.310;2023-01-26T02:54:39;95035.13;;;1.78;83.21
75051;BME280;63628;47.656;11.310;2023-01-26T02:57:26;95030.56;;;1.80;82.84
75051;BME280;63628;47.656;11.310;2023-01-26T02:59:52;95027.31;;;1.78;83.00
75051;BME280;63628;47.656;11.310;2023-01-26T03:02:19;95025.50;;;1.79;82.84
75051;BME280;63628;47.656;11.310;2023-01-26T03:04:46;95028.94;;;1.79;82.84
75051;BME280;63628;47.656;11.310;2023-01-26T03:07:12;95025.50;;;1.79;82.90
75051;BME280;63628;47.656;11.310;2023-01-26T03:09:39;95028.75;;;1.81;82.49
75051;BME280;63628;47.656;11.310;2023-01-26T03:12:06;95025.16;;;1.82;82.64
75051;BME280;63628;47.656;11.310;2023-01-26T03:14:34;95017.69;;;1.79;82.64
75051;BME280;63628;47.656;11.310;2023-01-26T03:17:00;95014.91;;;1.80;82.55
75051;BME280;63628;47.656;11.310;2023-01-26T03:19:27;95012.47;;;1.79;82.86
75051;BME280;63628;47.656;11.310;2023-01-26T03:22:12;95014.44;;;1.77;82.97
75051;BME280;63628;47.656;11.310;2023-01-26T03:24:57;95013.63;;;1.76;82.86
75051;BME280;63628;47.656;11.310;2023-01-26T03:27:44;95010.84;;;1.78;82.77
75051;BME280;63628;47.656;11.310;2023-01-26T03:30:14;95002.38;;;1.76;82.90
75051;BME280;63628;47.656;11.310;2023-01-26T03:32:42;95006.59;;;1.77;82.99
75051;BME280;63628;47.656;11.310;2023-01-26T03:35:09;95004.16;;;1.75;83.14
75051;BME280;63628;47.656;11.310;2023-01-26T03:37:40;95004.00;;;1.77;82.89
75051;BME280;63628;47.656;11.310;2023-01-26T03:40:10;94993.41;;;1.78;82.83
75051;BME280;63628;47.656;11.310;2023-01-26T03:42:56;95001.03;;;1.80;83.08
75051;BME280;63628;47.656;11.310;2023-01-26T03:45:42;94999.41;;;1.79;82.75
75051;BME280;63628;47.656;11.310;2023-01-26T03:48:28;95002.03;;;1.79;82.93
75051;BME280;63628;47.656;11.310;2023-01-26T03:51:13;95001.38;;;1.77;82.86
75051;BME280;63628;47.656;11.310;2023-01-26T03:53:58;94994.56;;;1.76;82.70
75051;BME280;63628;47.656;11.310;2023-01-26T03:56:44;94991.94;;;1.76;82.81
75051;BME280;63628;47.656;11.310;2023-01-26T03:59:10;94982.31;;;1.76;82.91
75051;BME280;63628;47.656;11.310;2023-01-26T04:01:42;94988.53;;;1.75;83.01
75051;BME280;63628;47.656;11.310;2023-01-26T04:04:29;94986.03;;;1.59;83.23
75051;BME280;63628;47.656;11.310;2023-01-26T04:07:14;94982.63;;;1.19;77.88
75051;BME280;63628;47.656;11.310;2023-01-26T04:09:59;94985.31;;;1.42;82.21
75051;BME280;63628;47.656;11.310;2023-01-26T04:12:26;94987.91;;;1.42;82.04
75051;BME280;63628;47.656;11.310;2023-01-26T04:14:52;94982.94;;;1.55;82.70
75051;BME280;63628;47.656;11.310;2023-01-26T04:17:39;94979.19;;;1.58;83.30
75051;BME280;63628;47.656;11.310;2023-01-26T04:20:24;94978.59;;;1.71;82.68
75051;BME280;63628;47.656;11.310;2023-01-26T04:23:16;94972.88;;;1.75;82.53
75051;BME280;63628;47.656;11.310;2023-01-26T04:25:43;94966.38;;;1.71;82.42
75051;BME280;63628;47.656;11.310;2023-01-26T04:28:09;94957.56;;;1.72;82.58
75051;BME280;63628;47.656;11.310;2023-01-26T04:30:36;94965.44;;;1.64;82.78
75051;BME280;63628;47.656;11.310;2023-01-26T04:33:04;94970.31;;;1.67;82.99
75051;BME280;63628;47.656;11.310;2023-01-26T04:35:30;94969.34;;;1.68;82.71
75051;BME280;63628;47.656;11.310;2023-01-26T04:37:57;94962.97;;;1.71;82.86
75051;BME280;63628;47.656;11.310;2023-01-26T04:40:23;94962.78;;;1.72;82.78
75051;BME280;63628;47.656;11.310;2023-01-26T04:42:50;94957.75;;;1.71;82.85
75051;BME280;63628;47.656;11.310;2023-01-26T04:45:16;94956.94;;;1.70;82.95
75051;BME280;63628;47.656;11.310;2023-01-26T04:47:43;94961.97;;;1.72;82.97
75051;BME280;63628;47.656;11.310;2023-01-26T04:50:11;94953.34;;;1.71;82.86
75051;BME280;63628;47.656;11.310;2023-01-26T04:52:38;94957.75;;;1.71;82.60
75051;BME280;63628;47.656;11.310;2023-01-26T04:55:05;94961.22;;;1.01;81.33
75051;BME280;63628;47.656;11.310;2023-01-26T04:57:31;94959.47;;;1.55;83.20
75051;BME280;63628;47.656;11.310;2023-01-26T04:59:58;94950.63;;;1.65;83.10
75051;BME280;63628;47.656;11.310;2023-01-26T05:02:24;94961.50;;;1.68;82.81
75051;BME280;63628;47.656;11.310;2023-01-26T05:04:51;94959.38;;;1.72;82.63
75051;BME280;63628;47.656;11.310;2023-01-26T05:07:19;94962.34;;;1.38;78.57
75051;BME280;63628;47.656;11.310;2023-01-26T05:09:45;94964.44;;;1.42;79.23
75051;BME280;63628;47.656;11.310;2023-01-26T05:12:12;94961.84;;;1.65;82.92
75051;BME280;63628;47.656;11.310;2023-01-26T05:14:57;94962.31;;;1.69;82.92
75051;BME280;63628;47.656;11.310;2023-01-26T05:17:24;94964.94;;;1.69;82.63
75051;BME280;63628;47.656;11.310;2023-01-26T05:19:50;94961.50;;;1.45;81.76
75051;BME280;63628;47.656;11.310;2023-01-26T05:22:18;94969.97;;;1.47;82.95
75051;BME280;63628;47.656;11.310;2023-01-26T05:24:45;94967.06;;;1.65;82.96
75051;BME280;63628;47.656;11.310;2023-01-26T05:27:11;94957.28;;;1.67;82.65
75051;BME280;63628;47.656;11.310;2023-01-26T05:29:47;94971.13;;;1.68;82.65
75051;BME280;63628;47.656;11.310;2023-01-26T05:32:13;94963.47;;;1.66;82.37
75051;BME280;63628;47.656;11.310;2023-01-26T05:34:40;94970.50;;;1.66;82.97
75051;BME280;63628;47.656;11.310;2023-01-26T05:37:06;94973.56;;;1.69;82.32
75051;BME280;63628;47.656;11.310;2023-01-26T05:39:34;94970.19;;;1.61;82.35
75051;BME280;63628;47.656;11.310;2023-01-26T05:42:01;94976.53;;;1.66;82.40
75051;BME280;63628;47.656;11.310;2023-01-26T05:44:27;94973.56;;;1.46;79.33
75051;BME280;63628;47.656;11.310;2023-01-26T05:46:55;94975.88;;;1.64;82.77
75051;BME280;63628;47.656;11.310;2023-01-26T05:49:21;94972.28;;;1.65;82.46
75051;BME280;63628;47.656;11.310;2023-01-26T05:51:48;94979.94;;;1.67;82.63
75051;BME280;63628;47.656;11.310;2023-01-26T05:54:15;94971.75;;;0.69;75.61
75051;BME280;63628;47.656;11.310;2023-01-26T05:56:43;94976.22;;;1.38;83.66
75051;BME280;63628;47.656;11.310;2023-01-26T05:59:09;94979.47;;;0.93;77.64
75051;BME280;63628;47.656;11.310;2023-01-26T06:01:36;94973.38;;;0.70;78.54
75051;BME280;63628;47.656;11.310;2023-01-26T06:04:03;94977.13;;;0.59;83.14
75051;BME280;63628;47.656;11.310;2023-01-26T06:06:29;94978.34;;;1.35;83.73
75051;BME280;63628;47.656;11.310;2023-01-26T06:08:56;94980.72;;;1.44;83.24
75051;BME280;63628;47.656;11.310;2023-01-26T06:11:23;94978.72;;;1.54;82.84
75051;BME280;63628;47.656;11.310;2023-01-26T06:13:51;94977.38;;;1.58;82.58
75051;BME280;63628;47.656;11.310;2023-01-26T06:16:17;94979.66;;;1.62;83.07
75051;BME280;63628;47.656;11.310;2023-01-26T06:18:46;94977.84;;;1.62;83.10
75051;BME280;63628;47.656;11.310;2023-01-26T06:21:13;94980.47;;;1.62;82.49
75051;BME280;63628;47.656;11.310;2023-01-26T06:23:39;94982.25;;;1.62;82.50
75051;BME280;63628;47.656;11.310;2023-01-26T06:26:06;94987.47;;;1.62;82.81
75051;BME280;63628;47.656;11.310;2023-01-26T06:28:35;94985.69;;;1.62;82.72
75051;BME280;63628;47.656;11.310;2023-01-26T06:31:04;94987.47;;;1.62;82.57
75051;BME280;63628;47.656;11.310;2023-01-26T06:33:32;94991.06;;;1.61;82.52
75051;BME280;63628;47.656;11.310;2023-01-26T06:36:02;94993.50;;;1.62;82.67
75051;BME280;63628;47.656;11.310;2023-01-26T06:38:30;94993.66;;;1.61;82.72
75051;BME280;63628;47.656;11.310;2023-01-26T06:40:58;94995.47;;;1.60;82.76
75051;BME280;63628;47.656;11.310;2023-01-26T06:43:25;94986.84;;;1.59;82.94
75051;BME280;63628;47.656;11.310;2023-01-26T06:45:51;94983.25;;;1.61;82.69
75051;BME280;63628;47.656;11.310;2023-01-26T06:48:19;94980.47;;;1.62;82.40
75051;BME280;63628;47.656;11.310;2023-01-26T06:50:45;94982.44;;;1.60;82.76
75051;BME280;63628;47.656;11.310;2023-01-26T06:53:25;94980.47;;;1.62;82.34
75051;BME280;63628;47.656;11.310;2023-01-26T06:55:54;94979.81;;;1.60;82.39
75051;BME280;63628;47.656;11.310;2023-01-26T06:58:20;94978.03;;;1.61;82.81
75051;BME280;63628;47.656;11.310;2023-01-26T07:00:47;94977.72;;;1.55;82.28
75051;BME280;63628;47.656;11.310;2023-01-26T07:03:14;94974.13;;;1.56;82.52
75051;BME280;63628;47.656;11.310;2023-01-26T07:05:41;94975.75;;;1.57;82.59
75051;BME280;63628;47.656;11.310;2023-01-26T07:08:08;94973.97;;;1.58;82.38
75051;BME280;63628;47.656;11.310;2023-01-26T07:10:35;94974.59;;;1.60;82.42
75051;BME280;63628;47.656;11.310;2023-01-26T07:13:02;94973.16;;;1.57;82.61
75051;BME280;63628;47.656;11.310;2023-01-26T07:15:29;94972.34;;;1.57;82.92
75051;BME280;63628;47.656;11.310;2023-01-26T07:17:56;94972.34;;;1.57;82.88
75051;BME280;63628;47.656;11.310;2023-01-26T07:20:23;94968.75;;;1.58;82.41
75051;BME280;63628;47.656;11.310;2023-01-26T07:22:51;94974.94;;;1.57;82.83
75051;BME280;63628;47.656;11.310;2023-01-26T07:25:18;94972.34;;;1.57;82.58
75051;BME280;63628;47.656;11.310;2023-01-26T07:27:45;94976.75;;;1.56;82.75
75051;BME280;63628;47.656;11.310;2023-01-26T07:30:12;94969.72;;;1.57;82.62
75051;BME280;63628;47.656;11.310;2023-01-26T07:32:39;94972.81;;;1.61;82.70
75051;BME280;63628;47.656;11.310;2023-01-26T07:35:07;94979.00;;;1.59;82.47
75051;BME280;63628;47.656;11.310;2023-01-26T07:37:34;94977.56;;;1.57;82.71
75051;BME280;63628;47.656;11.310;2023-01-26T07:40:02;94980.16;;;1.57;82.64
75051;BME280;63628;47.656;11.310;2023-01-26T07:42:29;94972.88;;;1.52;82.50
75051;BME280;63628;47.656;11.310;2023-01-26T07:44:56;94977.56;;;1.57;82.73
75051;BME280;63628;47.656;11.310;2023-01-26T07:47:23;94980.00;;;1.58;82.35
75051;BME280;63628;47.656;11.310;2023-01-26T07:49:49;94973.16;;;1.57;82.56
75051;BME280;63628;47.656;11.310;2023-01-26T07:52:16;94980.38;;;1.47;81.95
75051;BME280;63628;47.656;11.310;2023-01-26T07:54:43;94971.41;;;1.50;82.66
75051;BME280;63628;47.656;11.310;2023-01-26T07:57:12;94975.94;;;1.56;82.48
75051;BME280;63628;47.656;11.310;2023-01-26T07:59:38;94966.13;;;1.58;82.51
75051;BME280;63628;47.656;11.310;2023-01-26T08:02:05;94965.69;;;1.54;82.62
75051;BME280;63628;47.656;11.310;2023-01-26T08:04:31;94965.38;;;1.49;82.35
75051;BME280;63628;47.656;11.310;2023-01-26T08:06:58;94962.34;;;1.38;82.12
75051;BME280;63628;47.656;11.310;2023-01-26T08:09:25;94958.78;;;1.39;82.11
75051;BME280;63628;47.656;11.310;2023-01-26T08:11:52;94956.63;;;1.42;81.46
75051;BME280;63628;47.656;11.310;2023-01-26T08:14:19;94961.00;;;0.72;75.54
75051;BME280;63628;47.656;11.310;2023-01-26T08:16:46;94955.81;;;1.42;81.96
75051;BME280;63628;47.656;11.310;2023-01-26T08:19:13;94948.75;;;1.50;81.59
75051;BME280;63628;47.656;11.310;2023-01-26T08:21:39;94958.59;;;1.01;81.11
75051;BME280;63628;47.656;11.310;2023-01-26T08:24:06;94956.16;;;1.39;82.58
75051;BME280;63628;47.656;11.310;2023-01-26T08:26:33;94951.72;;;1.47;81.69
75051;BME280;63628;47.656;11.310;2023-01-26T08:29:00;94953.25;;;1.34;81.50
75051;BME280;63628;47.656;11.310;2023-01-26T08:31:28;94950.09;;;1.46;81.71
75051;BME280;63628;47.656;11.310;2023-01-26T08:33:55;94952.81;;;0.83;75.59
75051;BME280;63628;47.656;11.310;2023-01-26T08:36:21;94945.25;;;1.35;82.13
75051;BME280;63628;47.656;11.310;2023-01-26T08:38:49;94936.59;;;1.43;82.26
75051;BME280;63628;47.656;11.310;2023-01-26T08:41:16;94937.22;;;1.45;81.95
75051;BME280;63628;47.656;11.310;2023-01-26T08:43:43;94943.25;;;1.45;82.22
75051;BME280;63628;47.656;11.310;2023-01-26T08:46:10;94941.28;;;1.47;81.86
75051;BME280;63628;47.656;11.310;2023-01-26T08:48:38;94934.63;;;1.45;82.21
75051;BME280;63628;47.656;11.310;2023-01-26T08:51:05;94940.47;;;1.47;81.84
75051;BME280;63628;47.656;11.310;2023-01-26T08:53:34;94931.19;;;1.44;82.07
75051;BME280;63628;47.656;11.310;2023-01-26T08:56:01;94932.81;;;1.45;82.05
75051;BME280;63628;47.656;11.310;2023-01-26T08:58:28;94940.63;;;1.45;82.11
75051;BME280;63628;47.656;11.310;2023-01-26T09:00:55;94937.97;;;1.31;82.09
75051;BME280;63628;47.656;11.310;2023-01-26T09:03:21;94942.78;;;1.42;82.27
75051;BME280;63628;47.656;11.310;2023-01-26T09:05:49;94939.00;;;1.44;82.15
75051;BME280;63628;47.656;11.310;2023-01-26T09:08:16;94941.44;;;1.46;81.90
75051;BME280;63628;47.656;11.310;2023-01-26T09:10:42;94939.19;;;1.43;81.86
75051;BME280;63628;47.656;11.310;2023-01-26T09:13:12;94937.84;;;1.47;81.76
75051;BME280;63628;47.656;11.310;2023-01-26T09:15:38;94935.44;;;1.45;82.07
75051;BME280;63628;47.656;11.310;2023-01-26T09:18:05;94931.03;;;1.46;81.94
75051;BME280;63628;47.656;11.310;2023-01-26T09:20:31;94938.03;;;1.45;82.13
75051;BME280;63628;47.656;11.310;2023-01-26T09:22:59;94941.97;;;1.41;81.90
75051;BME280;63628;47.656;11.310;2023-01-26T09:25:26;94940.00;;;1.43;82.12
75051;BME280;63628;47.656;11.310;2023-01-26T09:27:53;94940.53;;;1.39;82.21
75051;BME280;63628;47.656;11.310;2023-01-26T09:30:19;94938.56;;;1.41;82.29
75051;BME280;63628;47.656;11.310;2023-01-26T09:32:46;94946.88;;;1.36;81.94
75051;BME280;63628;47.656;11.310;2023-01-26T09:35:13;94945.72;;;1.39;82.12
75051;BME280;63628;47.656;11.310;2023-01-26T09:37:41;94952.41;;;1.41;82.22
75051;BME280;63628;47.656;11.310;2023-01-26T09:40:15;94956.63;;;1.42;81.88
75051;BME280;63628;47.656;11.310;2023-01-26T09:42:57;94951.47;;;1.34;82.12
75051;BME280;63628;47.656;11.310;2023-01-26T09:45:28;94951.63;;;1.33;82.05
75051;BME280;63628;47.656;11.310;2023-01-26T09:48:10;94951.59;;;1.41;82.18
75051;BME280;63628;47.656;11.310;2023-01-26T09:50:42;94948.78;;;1.11;82.53
75051;BME280;63628;47.656;11.310;2023-01-26T09:53:15;94949.03;;;1.33;82.52
75051;BME280;63628;47.656;11.310;2023-01-26T09:55:47;94948.50;;;1.37;82.21
75051;BME280;63628;47.656;11.310;2023-01-26T09:58:17;94953.56;;;1.39;81.73
75051;BME280;63628;47.656;11.310;2023-01-26T10:00:46;94945.56;;;1.40;82.07
75051;BME280;63628;47.656;11.310;2023-01-26T10:03:19;94941.50;;;1.38;82.00
75051;BME280;63628;47.656;11.310;2023-01-26T10:05:52;94947.63;;;1.14;79.08
75051;BME280;63628;47.656;11.310;2023-01-26T10:08:20;94951.13;;;1.37;82.01
75051;BME280;63628;47.656;11.310;2023-01-26T10:10:52;94948.50;;;1.37;82.38
75051;BME280;63628;47.656;11.310;2023-01-26T10:13:20;94954.25;;;1.33;82.16
75051;BME280;63628;47.656;11.310;2023-01-26T10:15:51;94944.31;;;1.28;81.45
75051;BME280;63628;47.656;11.310;2023-01-26T10:18:23;94942.53;;;0.89;76.84
75051;BME280;63628;47.656;11.310;2023-01-26T10:20:53;94927.66;;;1.37;82.41
75051;BME280;63628;47.656;11.310;2023-01-26T10:23:23;94933.22;;;1.26;82.70
75051;BME280;63628;47.656;11.310;2023-01-26T10:25:55;94929.44;;;1.37;82.11
75051;BME280;63628;47.656;11.310;2023-01-26T10:28:26;94929.00;;;1.33;82.21
75051;BME280;63628;47.656;11.310;2023-01-26T10:30:55;94930.16;;;1.31;82.26
75051;BME280;63628;47.656;11.310;2023-01-26T10:33:26;94935.31;;;1.39;82.11
75051;BME280;63628;47.656;11.310;2023-01-26T10:35:53;94922.28;;;1.39;81.38
75051;BME280;63628;47.656;11.310;2023-01-26T10:38:26;94927.66;;;1.37;82.05
75051;BME280;63628;47.656;11.310;2023-01-26T10:40:54;94922.91;;;1.41;81.78
75051;BME280;63628;47.656;11.310;2023-01-26T10:43:23;94929.06;;;1.17;82.16
75051;BME280;63628;47.656;11.310;2023-01-26T10:45:49;94933.03;;;1.36;82.31
75051;BME280;63628;47.656;11.310;2023-01-26T10:48:18;94920.53;;;1.31;82.34
75051;BME280;63628;47.656;11.310;2023-01-26T10:50:46;94923.44;;;1.28;80.05
75051;BME280;63628;47.656;11.310;2023-01-26T10:53:16;94926.97;;;1.12;82.28
75051;BME280;63628;47.656;11.310;2023-01-26T10:55:59;94922.97;;;1.24;82.29
75051;BME280;63628;47.656;11.310;2023-01-26T10:58:56;94924.25;;;1.37;82.44
75051;BME280;63628;47.656;11.310;2023-01-26T11:01:25;94920.81;;;1.05;81.97
75051;BME280;63628;47.656;11.310;2023-01-26T11:04:03;94916.94;;;1.32;82.27
75051;BME280;63628;47.656;11.310;2023-01-26T11:06:32;94923.03;;;1.16;78.89
75051;BME280;63628;47.656;11.310;2023-01-26T11:09:10;94923.44;;;1.36;82.10
75051;BME280;63628;47.656;11.310;2023-01-26T11:11:54;94927.03;;;1.35;82.31
75051;BME280;63628;47.656;11.310;2023-01-26T11:14:21;94912.66;;;1.39;82.21
75051;BME280;63628;47.656;11.310;2023-01-26T11:16:50;94922.63;;;1.36;82.14
75051;BME280;63628;47.656;11.310;2023-01-26T11:19:52;94923.78;;;1.33;81.75
75051;BME280;63628;47.656;11.310;2023-01-26T11:22:29;94910.56;;;1.35;81.99
75051;BME280;63628;47.656;11.310;2023-01-26T11:25:03;94915.97;;;1.33;81.54
75051;BME280;63628;47.656;11.310;2023-01-26T11:27:39;94915.22;;;1.16;80.52
75051;BME280;63628;47.656;11.310;2023-01-26T11:33:16;94908.13;;;1.33;81.62
75051;BME280;63628;47.656;11.310;2023-01-26T11:35:51;94908.94;;;1.34;81.61
75051;BME280;63628;47.656;11.310;2023-01-26T11:38:31;94907.31;;;1.33;81.59
75051;BME280;63628;47.656;11.310;2023-01-26T11:41:11;94898.06;;;1.30;81.79
75051;BME280;63628;47.656;11.310;2023-01-26T11:43:47;94894.97;;;0.95;78.17
75051;BME280;63628;47.656;11.310;2023-01-26T11:46:50;94893.97;;;1.27;81.82
75051;BME280;63628;47.656;11.310;2023-01-26T11:49:42;94894.28;;;1.33;81.68
75051;BME280;63628;47.656;11.310;2023-01-26T11:52:20;94896.16;;;1.16;81.92
75051;BME280;63628;47.656;11.310;2023-01-26T11:55:12;94896.25;;;1.31;81.83
75051;BME280;63628;47.656;11.310;2023-01-26T11:57:47;94890.25;;;1.30;81.71
75051;BME280;63628;47.656;11.310;2023-01-26T12:00:20;94903.59;;;0.57;74.57
75051;BME280;63628;47.656;11.310;2023-01-26T12:02:59;94890.63;;;0.88;82.65
75051;BME280;63628;47.656;11.310;2023-01-26T12:05:29;94892.75;;;1.15;82.24
75051;BME280;63628;47.656;11.310;2023-01-26T12:07:58;94891.28;;;1.13;81.61
75051;BME280;63628;47.656;11.310;2023-01-26T12:10:32;94893.59;;;0.77;75.52
75051;BME280;63628;47.656;11.310;2023-01-26T12:13:05;94895.22;;;0.78;76.56
75051;BME280;63628;47.656;11.310;2023-01-26T12:15:38;94888.91;;;1.03;82.68
75051;BME280;63628;47.656;11.310;2023-01-26T12:18:13;94884.41;;;1.20;82.25
75051;BME280;63628;47.656;11.310;2023-01-26T12:20:45;94887.31;;;1.25;81.96
75051;BME280;63628;47.656;11.310;2023-01-26T12:23:24;94882.25;;;0.70;76.59
75051;BME280;63628;47.656;11.310;2023-01-26T12:25:55;94886.50;;;-0.34;75.71
75051;BME280;63628;47.656;11.310;2023-01-26T12:28:26;94882.94;;;-0.24;77.71
75051;BME280;63628;47.656;11.310;2023-01-26T12:31:01;94879.00;;;-0.77;77.64
75051;BME280;63628;47.656;11.310;2023-01-26T12:33:31;94885.34;;;-0.15;81.91
75051;BME280;63628;47.656;11.310;2023-01-26T12:36:16;94880.41;;;0.31;81.04
75051;BME280;63628;47.656;11.310;2023-01-26T12:38:54;94875.84;;;0.80;82.62
75051;BME280;63628;47.656;11.310;2023-01-26T12:41:32;94879.81;;;0.99;82.54
75051;BME280;63628;47.656;11.310;2023-01-26T12:44:13;94881.56;;;1.07;82.17
75051;BME280;63628;47.656;11.310;2023-01-26T12:46:50;94882.81;;;0.41;76.61
75051;BME280;63628;47.656;11.310;2023-01-26T12:49:20;94883.41;;;0.59;81.69
75051;BME280;63628;47.656;11.310;2023-01-26T12:51:52;94877.66;;;-1.14;75.57
75051;BME280;63628;47.656;11.310;2023-01-26T12:54:26;94882.28;;;-0.51;78.35
75051;BME280;63628;47.656;11.310;2023-01-26T12:56:59;94880.19;;;-0.55;77.05
75051;BME280;63628;47.656;11.310;2023-01-26T12:59:30;94879.53;;;-0.25;75.28
75051;BME280;63628;47.656;11.310;2023-01-26T13:02:26;94877.41;;;-0.13;77.00
75051;BME280;63628;47.656;11.310;2023-01-26T13:04:55;94872.38;;;-0.23;73.86
75051;BME280;63628;47.656;11.310;2023-01-26T13:07:28;94873.66;;;-0.19;77.02
75051;BME280;63628;47.656;11.310;2023-01-26T13:10:19;94874.81;;;0.50;81.22
75051;BME280;63628;47.656;11.310;2023-01-26T13:12:47;94884.28;;;0.82;82.29
75051;BME280;63628;47.656;11.310;2023-01-26T13:15:16;94873.78;;;0.99;82.56
75051;BME280;63628;47.656;11.310;2023-01-26T13:17:55;94869.84;;;1.03;82.48
75051;BME280;63628;47.656;11.310;2023-01-26T13:20:39;94866.91;;;1.06;82.48